sensor_id;sensor_type;location;lat;lon;timestamp;P1;durP1;ratioP1;P2;durP2;ratioP2
74974;SDS011;63530;50.836;19.138;2022-09-24T00:01:14;7.65;;;3.30;;
74974;SDS011;63530;50.836;19.138;2022-09-24T00:04:19;6.13;;;3.43;;
74974;SDS011;63530;50.836;19.138;2022-09-24T00:07:29;9.65;;;4.18;;
74974;SDS011;63530;50.836;19.138;2022-09-24T00:10:35;7.72;;;3.45;;
74974;SDS011;63530;50.836;19.138;2022-09-24T00:13:40;7.65;;;3.25;;
74974;SDS011;63530;50.836;19.138;2022-09-24T00:16:44;8.38;;;3.70;;
74974;SDS011;63530;50.836;19.138;2022-09-24T00:19:48;6.37;;;3.67;;
74974;SDS011;63530;50.836;19.138;2022-09-24T00:22:53;7.75;;;4.00;;
74974;SDS011;63530;50.836;19.138;2022-09-24T00:25:56;7.18;;;3.33;;
74974;SDS011;63530;50.836;19.138;2022-09-24T00:29:18;6.68;;;3.78;;
74974;SDS011;63530;50.836;19.138;2022-09-24T00:32:23;8.18;;;3.60;;
74974;SDS011;63530;50.836;19.138;2022-09-24T00:35:26;7.33;;;3.60;;
74974;SDS011;63530;50.836;19.138;2022-09-24T00:38:33;7.88;;;4.18;;
74974;SDS011;63530;50.836;19.138;2022-09-24T00:41:37;9.82;;;3.90;;
74974;SDS011;63530;50.836;19.138;2022-09-24T00:44:51;8.68;;;3.63;;
74974;SDS011;63530;50.836;19.138;2022-09-24T00:47:56;7.82;;;3.90;;
74974;SDS011;63530;50.836;19.138;2022-09-24T00:51:01;9.90;;;3.83;;
74974;SDS011;63530;50.836;19.138;2022-09-24T00:54:08;7.55;;;4.10;;
74974;SDS011;63530;50.836;19.138;2022-09-24T00:57:14;6.97;;;3.97;;
74974;SDS011;63530;50.836;19.138;2022-09-24T01:00:18;6.72;;;3.95;;
74974;SDS011;63530;50.836;19.138;2022-09-24T01:03:23;8.13;;;3.45;;
74974;SDS011;63530;50.836;19.138;2022-09-24T01:06:28;10.40;;;3.97;;
74974;SDS011;63530;50.836;19.138;2022-09-24T01:09:33;6.75;;;3.88;;
74974;SDS011;63530;50.836;19.138;2022-09-24T01:12:39;7.55;;;4.00;;
74974;SDS011;63530;50.836;19.138;2022-09-24T01:15:51;6.20;;;3.30;;
74974;SDS011;63530;50.836;19.138;2022-09-24T01:19:04;7.68;;;3.28;;
74974;SDS011;63530;50.836;19.138;2022-09-24T01:22:21;7.03;;;3.70;;
74974;SDS011;63530;50.836;19.138;2022-09-24T01:25:39;8.27;;;3.90;;
74974;SDS011;63530;50.836;19.138;2022-09-24T01:28:56;6.20;;;3.95;;
74974;SDS011;63530;50.836;19.138;2022-09-24T01:32:09;6.57;;;3.80;;
74974;SDS011;63530;50.836;19.138;2022-09-24T01:35:21;8.80;;;3.80;;
74974;SDS011;63530;50.836;19.138;2022-09-24T01:38:28;6.03;;;4.20;;
74974;SDS011;63530;50.836;19.138;2022-09-24T01:41:35;8.15;;;3.65;;
74974;SDS011;63530;50.836;19.138;2022-09-24T01:44:41;6.65;;;3.53;;
74974;SDS011;63530;50.836;19.138;2022-09-24T01:47:47;8.05;;;3.90;;
74974;SDS011;63530;50.836;19.138;2022-09-24T01:50:54;5.47;;;3.88;;
74974;SDS011;63530;50.836;19.138;2022-09-24T01:54:09;6.90;;;3.60;;
74974;SDS011;63530;50.836;19.138;2022-09-24T01:57:21;7.93;;;3.47;;
74974;SDS011;63530;50.836;19.138;2022-09-24T02:00:27;6.50;;;3.53;;
74974;SDS011;63530;50.836;19.138;2022-09-24T02:03:33;8.18;;;3.47;;
74974;SDS011;63530;50.836;19.138;2022-09-24T02:06:43;4.72;;;2.97;;
74974;SDS011;63530;50.836;19.138;2022-09-24T02:09:53;8.57;;;4.60;;
74974;SDS011;63530;50.836;19.138;2022-09-24T02:12:57;6.97;;;3.70;;
74974;SDS011;63530;50.836;19.138;2022-09-24T02:16:05;6.93;;;3.70;;
74974;SDS011;63530;50.836;19.138;2022-09-24T02:19:13;8.70;;;3.65;;
74974;SDS011;63530;50.836;19.138;2022-09-24T02:22:19;6.97;;;3.78;;
74974;SDS011;63530;50.836;19.138;2022-09-24T02:25:24;5.80;;;3.30;;
74974;SDS011;63530;50.836;19.138;2022-09-24T02:28:32;7.07;;;3.50;;
74974;SDS011;63530;50.836;19.138;2022-09-24T02:31:37;7.35;;;3.05;;
74974;SDS011;63530;50.836;19.138;2022-09-24T02:34:45;7.53;;;3.55;;
74974;SDS011;63530;50.836;19.138;2022-09-24T02:37:52;7.50;;;3.50;;
74974;SDS011;63530;50.836;19.138;2022-09-24T02:40:55;5.43;;;3.30;;
74974;SDS011;63530;50.836;19.138;2022-09-24T02:43:59;7.22;;;3.72;;
74974;SDS011;63530;50.836;19.138;2022-09-24T02:47:03;7.40;;;3.75;;
74974;SDS011;63530;50.836;19.138;2022-09-24T02:50:09;7.45;;;3.53;;
74974;SDS011;63530;50.836;19.138;2022-09-24T02:53:13;8.07;;;3.92;;
74974;SDS011;63530;50.836;19.138;2022-09-24T02:56:17;6.80;;;3.43;;
74974;SDS011;63530;50.836;19.138;2022-09-24T02:59:21;6.45;;;3.97;;
74974;SDS011;63530;50.836;19.138;2022-09-24T03:02:25;8.52;;;3.90;;
74974;SDS011;63530;50.836;19.138;2022-09-24T03:05:30;7.78;;;4.10;;
74974;SDS011;63530;50.836;19.138;2022-09-24T03:08:33;6.97;;;3.58;;
74974;SDS011;63530;50.836;19.138;2022-09-24T03:11:37;6.87;;;3.40;;
74974;SDS011;63530;50.836;19.138;2022-09-24T03:14:40;8.15;;;3.88;;
74974;SDS011;63530;50.836;19.138;2022-09-24T03:17:44;6.13;;;3.45;;
74974;SDS011;63530;50.836;19.138;2022-09-24T03:20:55;6.10;;;3.97;;
74974;SDS011;63530;50.836;19.138;2022-09-24T03:23:59;6.05;;;3.30;;
74974;SDS011;63530;50.836;19.138;2022-09-24T03:27:04;7.37;;;3.43;;
74974;SDS011;63530;50.836;19.138;2022-09-24T03:30:08;7.85;;;3.47;;
74974;SDS011;63530;50.836;19.138;2022-09-24T03:33:30;6.85;;;3.28;;
74974;SDS011;63530;50.836;19.138;2022-09-24T03:36:37;8.68;;;3.67;;
74974;SDS011;63530;50.836;19.138;2022-09-24T03:39:40;7.30;;;3.55;;
74974;SDS011;63530;50.836;19.138;2022-09-24T03:42:44;5.97;;;3.57;;
74974;SDS011;63530;50.836;19.138;2022-09-24T03:45:47;8.35;;;3.47;;
74974;SDS011;63530;50.836;19.138;2022-09-24T03:48:51;7.63;;;3.67;;
74974;SDS011;63530;50.836;19.138;2022-09-24T03:51:56;5.80;;;3.05;;
74974;SDS011;63530;50.836;19.138;2022-09-24T03:54:59;5.30;;;3.50;;
74974;SDS011;63530;50.836;19.138;2022-09-24T03:58:03;6.17;;;3.57;;
74974;SDS011;63530;50.836;19.138;2022-09-24T04:01:08;6.28;;;3.00;;
74974;SDS011;63530;50.836;19.138;2022-09-24T04:04:12;6.22;;;3.60;;
74974;SDS011;63530;50.836;19.138;2022-09-24T04:07:18;6.40;;;3.47;;
74974;SDS011;63530;50.836;19.138;2022-09-24T04:10:22;6.68;;;3.53;;
74974;SDS011;63530;50.836;19.138;2022-09-24T04:13:26;7.03;;;3.77;;
74974;SDS011;63530;50.836;19.138;2022-09-24T04:16:30;7.50;;;3.42;;
74974;SDS011;63530;50.836;19.138;2022-09-24T04:19:33;5.32;;;3.00;;
74974;SDS011;63530;50.836;19.138;2022-09-24T04:22:38;8.95;;;3.80;;
74974;SDS011;63530;50.836;19.138;2022-09-24T04:25:42;5.88;;;3.28;;
74974;SDS011;63530;50.836;19.138;2022-09-24T04:28:46;7.77;;;3.13;;
74974;SDS011;63530;50.836;19.138;2022-09-24T04:31:51;6.22;;;3.53;;
74974;SDS011;63530;50.836;19.138;2022-09-24T04:34:54;5.32;;;3.20;;
74974;SDS011;63530;50.836;19.138;2022-09-24T04:37:59;8.65;;;3.65;;
74974;SDS011;63530;50.836;19.138;2022-09-24T04:41:03;5.38;;;3.35;;
74974;SDS011;63530;50.836;19.138;2022-09-24T04:44:08;7.40;;;3.77;;
74974;SDS011;63530;50.836;19.138;2022-09-24T04:47:14;6.50;;;3.33;;
74974;SDS011;63530;50.836;19.138;2022-09-24T04:50:18;6.40;;;3.88;;
74974;SDS011;63530;50.836;19.138;2022-09-24T04:53:28;6.50;;;3.30;;
74974;SDS011;63530;50.836;19.138;2022-09-24T04:56:31;6.22;;;3.72;;
74974;SDS011;63530;50.836;19.138;2022-09-24T04:59:34;5.87;;;2.90;;
74974;SDS011;63530;50.836;19.138;2022-09-24T05:02:38;6.53;;;3.05;;
74974;SDS011;63530;50.836;19.138;2022-09-24T05:05:42;7.20;;;3.70;;
74974;SDS011;63530;50.836;19.138;2022-09-24T05:08:47;6.25;;;2.90;;
74974;SDS011;63530;50.836;19.138;2022-09-24T05:11:51;6.68;;;4.10;;
74974;SDS011;63530;50.836;19.138;2022-09-24T05:14:55;5.97;;;3.63;;
74974;SDS011;63530;50.836;19.138;2022-09-24T05:17:59;6.22;;;3.42;;
74974;SDS011;63530;50.836;19.138;2022-09-24T05:21:02;5.68;;;3.25;;
74974;SDS011;63530;50.836;19.138;2022-09-24T05:24:07;5.97;;;3.42;;
74974;SDS011;63530;50.836;19.138;2022-09-24T05:27:11;5.22;;;3.35;;
74974;SDS011;63530;50.836;19.138;2022-09-24T05:30:14;6.33;;;3.13;;
74974;SDS011;63530;50.836;19.138;2022-09-24T05:33:19;5.82;;;3.50;;
74974;SDS011;63530;50.836;19.138;2022-09-24T05:36:22;6.32;;;3.25;;
74974;SDS011;63530;50.836;19.138;2022-09-24T05:39:29;7.25;;;3.63;;
74974;SDS011;63530;50.836;19.138;2022-09-24T05:42:35;8.15;;;4.20;;
74974;SDS011;63530;50.836;19.138;2022-09-24T05:45:38;6.97;;;3.30;;
74974;SDS011;63530;50.836;19.138;2022-09-24T05:48:42;5.30;;;3.40;;
74974;SDS011;63530;50.836;19.138;2022-09-24T05:51:46;4.57;;;3.03;;
74974;SDS011;63530;50.836;19.138;2022-09-24T05:54:52;7.38;;;3.67;;
74974;SDS011;63530;50.836;19.138;2022-09-24T05:58:00;5.32;;;3.38;;
74974;SDS011;63530;50.836;19.138;2022-09-24T06:01:04;5.17;;;2.93;;
74974;SDS011;63530;50.836;19.138;2022-09-24T06:04:08;6.10;;;3.10;;
74974;SDS011;63530;50.836;19.138;2022-09-24T06:07:12;4.97;;;2.90;;
74974;SDS011;63530;50.836;19.138;2022-09-24T06:10:17;5.22;;;3.17;;
74974;SDS011;63530;50.836;19.138;2022-09-24T06:13:20;5.70;;;3.13;;
74974;SDS011;63530;50.836;19.138;2022-09-24T06:16:23;5.63;;;3.13;;
74974;SDS011;63530;50.836;19.138;2022-09-24T06:19:27;7.25;;;3.08;;
74974;SDS011;63530;50.836;19.138;2022-09-24T06:22:31;4.95;;;3.03;;
74974;SDS011;63530;50.836;19.138;2022-09-24T06:25:35;5.78;;;3.28;;
74974;SDS011;63530;50.836;19.138;2022-09-24T06:28:39;5.63;;;3.17;;
74974;SDS011;63530;50.836;19.138;2022-09-24T06:31:43;5.33;;;3.33;;
74974;SDS011;63530;50.836;19.138;2022-09-24T06:34:47;5.32;;;3.42;;
74974;SDS011;63530;50.836;19.138;2022-09-24T06:37:59;6.88;;;3.20;;
74974;SDS011;63530;50.836;19.138;2022-09-24T06:41:05;6.90;;;3.58;;
74974;SDS011;63530;50.836;19.138;2022-09-24T06:44:08;8.32;;;3.67;;
74974;SDS011;63530;50.836;19.138;2022-09-24T06:47:11;5.10;;;3.20;;
74974;SDS011;63530;50.836;19.138;2022-09-24T06:50:15;4.68;;;2.88;;
74974;SDS011;63530;50.836;19.138;2022-09-24T06:53:18;5.90;;;3.45;;
74974;SDS011;63530;50.836;19.138;2022-09-24T06:56:23;6.40;;;3.70;;
74974;SDS011;63530;50.836;19.138;2022-09-24T06:59:27;7.57;;;3.85;;
74974;SDS011;63530;50.836;19.138;2022-09-24T07:02:30;5.23;;;3.30;;
74974;SDS011;63530;50.836;19.138;2022-09-24T07:05:34;7.05;;;3.33;;
74974;SDS011;63530;50.836;19.138;2022-09-24T07:08:44;6.90;;;3.13;;
74974;SDS011;63530;50.836;19.138;2022-09-24T07:11:53;6.90;;;3.00;;
74974;SDS011;63530;50.836;19.138;2022-09-24T18:42:26;8.97;;;5.07;;
74974;SDS011;63530;50.836;19.138;2022-09-24T18:45:32;9.43;;;5.28;;
74974;SDS011;63530;50.836;19.138;2022-09-24T18:48:36;10.10;;;5.28;;
74974;SDS011;63530;50.836;19.138;2022-09-24T18:51:42;8.80;;;4.95;;
74974;SDS011;63530;50.836;19.138;2022-09-24T18:54:45;9.82;;;5.47;;
74974;SDS011;63530;50.836;19.138;2022-09-24T18:57:49;10.30;;;5.43;;
74974;SDS011;63530;50.836;19.138;2022-09-24T19:00:56;9.15;;;5.30;;
74974;SDS011;63530;50.836;19.138;2022-09-24T19:04:00;8.00;;;4.85;;
74974;SDS011;63530;50.836;19.138;2022-09-24T19:07:06;9.65;;;4.18;;
74974;SDS011;63530;50.836;19.138;2022-09-24T19:10:09;7.85;;;4.70;;
74974;SDS011;63530;50.836;19.138;2022-09-24T19:13:13;9.30;;;4.63;;
74974;SDS011;63530;50.836;19.138;2022-09-24T19:16:17;9.30;;;4.97;;
74974;SDS011;63530;50.836;19.138;2022-09-24T19:19:25;7.22;;;4.68;;
74974;SDS011;63530;50.836;19.138;2022-09-24T19:22:30;8.18;;;4.60;;
74974;SDS011;63530;50.836;19.138;2022-09-24T19:25:35;7.88;;;4.57;;
74974;SDS011;63530;50.836;19.138;2022-09-24T19:28:40;9.17;;;4.80;;
74974;SDS011;63530;50.836;19.138;2022-09-24T19:31:44;12.63;;;5.28;;
74974;SDS011;63530;50.836;19.138;2022-09-24T19:34:49;11.63;;;4.50;;
74974;SDS011;63530;50.836;19.138;2022-09-24T19:37:54;9.45;;;4.63;;
74974;SDS011;63530;50.836;19.138;2022-09-24T19:40:57;7.78;;;3.92;;
74974;SDS011;63530;50.836;19.138;2022-09-24T19:44:02;15.00;;;4.93;;
74974;SDS011;63530;50.836;19.138;2022-09-24T19:47:10;11.27;;;4.82;;
74974;SDS011;63530;50.836;19.138;2022-09-24T19:50:13;9.13;;;4.30;;
74974;SDS011;63530;50.836;19.138;2022-09-24T19:53:20;10.27;;;4.07;;
74974;SDS011;63530;50.836;19.138;2022-09-24T19:56:24;12.68;;;4.85;;
74974;SDS011;63530;50.836;19.138;2022-09-24T19:59:27;10.10;;;4.87;;
74974;SDS011;63530;50.836;19.138;2022-09-24T20:02:31;10.55;;;4.13;;
74974;SDS011;63530;50.836;19.138;2022-09-24T20:05:35;10.77;;;4.82;;
74974;SDS011;63530;50.836;19.138;2022-09-24T20:08:42;10.55;;;4.63;;
74974;SDS011;63530;50.836;19.138;2022-09-24T20:11:45;10.23;;;4.13;;
74974;SDS011;63530;50.836;19.138;2022-09-24T20:14:51;13.50;;;4.37;;
74974;SDS011;63530;50.836;19.138;2022-09-24T20:17:54;9.05;;;3.92;;
74974;SDS011;63530;50.836;19.138;2022-09-24T20:21:00;10.23;;;4.43;;
74974;SDS011;63530;50.836;19.138;2022-09-24T20:24:06;9.73;;;3.80;;
74974;SDS011;63530;50.836;19.138;2022-09-24T20:27:12;8.75;;;4.13;;
74974;SDS011;63530;50.836;19.138;2022-09-24T20:30:33;10.50;;;3.57;;
74974;SDS011;63530;50.836;19.138;2022-09-24T20:33:38;9.48;;;4.28;;
74974;SDS011;63530;50.836;19.138;2022-09-24T20:36:43;8.23;;;3.80;;
74974;SDS011;63530;50.836;19.138;2022-09-24T20:39:48;11.50;;;3.90;;
74974;SDS011;63530;50.836;19.138;2022-09-24T20:42:51;7.07;;;3.53;;
74974;SDS011;63530;50.836;19.138;2022-09-24T20:45:55;6.40;;;3.60;;
74974;SDS011;63530;50.836;19.138;2022-09-24T20:49:00;6.75;;;3.55;;
74974;SDS011;63530;50.836;19.138;2022-09-24T20:52:04;6.75;;;3.30;;
74974;SDS011;63530;50.836;19.138;2022-09-24T20:55:09;11.23;;;3.15;;
74974;SDS011;63530;50.836;19.138;2022-09-24T20:58:14;10.27;;;3.50;;
74974;SDS011;63530;50.836;19.138;2022-09-24T21:01:18;10.33;;;3.57;;
74974;SDS011;63530;50.836;19.138;2022-09-24T21:04:22;8.25;;;3.45;;
74974;SDS011;63530;50.836;19.138;2022-09-24T21:07:27;5.82;;;3.22;;
74974;SDS011;63530;50.836;19.138;2022-09-24T21:10:32;8.70;;;3.50;;
74974;SDS011;63530;50.836;19.138;2022-09-24T21:13:38;7.10;;;3.55;;
74974;SDS011;63530;50.836;19.138;2022-09-24T21:16:43;6.30;;;3.37;;
74974;SDS011;63530;50.836;19.138;2022-09-24T21:19:47;5.50;;;3.28;;
74974;SDS011;63530;50.836;19.138;2022-09-24T21:22:50;6.97;;;3.20;;
74974;SDS011;63530;50.836;19.138;2022-09-24T21:25:55;8.00;;;3.05;;
74974;SDS011;63530;50.836;19.138;2022-09-24T21:28:59;8.30;;;3.92;;
74974;SDS011;63530;50.836;19.138;2022-09-24T21:32:04;7.47;;;3.57;;
74974;SDS011;63530;50.836;19.138;2022-09-24T21:35:08;4.90;;;2.78;;
74974;SDS011;63530;50.836;19.138;2022-09-24T21:38:12;6.50;;;3.35;;
74974;SDS011;63530;50.836;19.138;2022-09-24T21:41:22;5.43;;;2.92;;
74974;SDS011;63530;50.836;19.138;2022-09-24T21:44:26;6.40;;;3.60;;
74974;SDS011;63530;50.836;19.138;2022-09-24T21:47:34;6.30;;;3.17;;
74974;SDS011;63530;50.836;19.138;2022-09-24T21:50:38;6.65;;;3.15;;
74974;SDS011;63530;50.836;19.138;2022-09-24T21:53:41;6.45;;;3.45;;
74974;SDS011;63530;50.836;19.138;2022-09-24T21:56:46;9.07;;;3.35;;
74974;SDS011;63530;50.836;19.138;2022-09-24T21:59:50;4.63;;;2.85;;
74974;SDS011;63530;50.836;19.138;2022-09-24T22:03:05;5.27;;;3.20;;
74974;SDS011;63530;50.836;19.138;2022-09-24T22:06:09;9.55;;;3.63;;
74974;SDS011;63530;50.836;19.138;2022-09-24T22:09:12;6.45;;;3.58;;
74974;SDS011;63530;50.836;19.138;2022-09-24T22:12:18;6.10;;;2.80;;
74974;SDS011;63530;50.836;19.138;2022-09-24T22:15:21;6.22;;;3.50;;
74974;SDS011;63530;50.836;19.138;2022-09-24T22:18:24;6.33;;;3.43;;
74974;SDS011;63530;50.836;19.138;2022-09-24T22:21:28;5.55;;;3.08;;
74974;SDS011;63530;50.836;19.138;2022-09-24T22:24:32;5.43;;;3.17;;
74974;SDS011;63530;50.836;19.138;2022-09-24T22:27:37;5.93;;;3.13;;
74974;SDS011;63530;50.836;19.138;2022-09-24T22:30:41;6.00;;;2.92;;
74974;SDS011;63530;50.836;19.138;2022-09-24T22:33:45;6.80;;;3.07;;
74974;SDS011;63530;50.836;19.138;2022-09-24T22:37:06;5.90;;;3.28;;
74974;SDS011;63530;50.836;19.138;2022-09-24T22:40:09;7.07;;;3.97;;
74974;SDS011;63530;50.836;19.138;2022-09-24T22:43:14;5.65;;;2.83;;
74974;SDS011;63530;50.836;19.138;2022-09-24T22:46:18;6.55;;;3.03;;
74974;SDS011;63530;50.836;19.138;2022-09-24T22:49:22;8.10;;;3.10;;
74974;SDS011;63530;50.836;19.138;2022-09-24T22:52:25;5.28;;;2.70;;
74974;SDS011;63530;50.836;19.138;2022-09-24T22:55:30;6.18;;;3.47;;
74974;SDS011;63530;50.836;19.138;2022-09-24T22:58:35;6.30;;;3.28;;
74974;SDS011;63530;50.836;19.138;2022-09-24T23:01:42;5.85;;;3.00;;
74974;SDS011;63530;50.836;19.138;2022-09-24T23:04:46;5.87;;;3.27;;
74974;SDS011;63530;50.836;19.138;2022-09-24T23:07:49;6.28;;;3.03;;
74974;SDS011;63530;50.836;19.138;2022-09-24T23:10:53;7.38;;;3.60;;
74974;SDS011;63530;50.836;19.138;2022-09-24T23:13:58;8.90;;;3.78;;
74974;SDS011;63530;50.836;19.138;2022-09-24T23:17:04;6.63;;;3.15;;
74974;SDS011;63530;50.836;19.138;2022-09-24T23:20:08;6.47;;;3.40;;
74974;SDS011;63530;50.836;19.138;2022-09-24T23:23:13;7.32;;;3.22;;
74974;SDS011;63530;50.836;19.138;2022-09-24T23:26:17;6.38;;;3.67;;
74974;SDS011;63530;50.836;19.138;2022-09-24T23:29:22;4.68;;;3.20;;
74974;SDS011;63530;50.836;19.138;2022-09-24T23:32:26;7.38;;;3.72;;
74974;SDS011;63530;50.836;19.138;2022-09-24T23:35:29;5.67;;;3.13;;
74974;SDS011;63530;50.836;19.138;2022-09-24T23:38:33;7.85;;;3.28;;
74974;SDS011;63530;50.836;19.138;2022-09-24T23:41:37;7.28;;;3.42;;
74974;SDS011;63530;50.836;19.138;2022-09-24T23:44:42;6.68;;;2.95;;
74974;SDS011;63530;50.836;19.138;2022-09-24T23:47:46;7.95;;;3.22;;
74974;SDS011;63530;50.836;19.138;2022-09-24T23:50:49;5.90;;;3.63;;
74974;SDS011;63530;50.836;19.138;2022-09-24T23:53:53;7.97;;;3.67;;
74974;SDS011;63530;50.836;19.138;2022-09-24T23:56:56;7.32;;;4.03;;
